Latest Coastal Weather Observations for Stenhouse Bay

IDS60701

Issued at 11:31 am CST Friday 29 April 2016 (issued every 10 minutes, with the page automatically refreshed every 10 minutes)

About coastal observations | Map of coastal stations | Coastal observations for SA | Marine services | Other Formats
Station Details ID: 022049 Name: STENHOUSE BAY Lat: -35.28 Lon: 136.94 Height: 42.0 m
Data from the previous 72 hours. | See also: Recent months at Stenhouse Bay
Date/Time
CST
Temp

°C
Wind Pressure Rain
since 9am
mm
Weather Cloud Vis
km
Sea
Height
m
Swell
Dir
 
Speed
knots
Gust
knots
hPa Trend Height
m
Period
s
Dir
29/11:30am 20.1 NNW 14 18 1010.9 - 0.2 - - - - - - -
29/11:00am 20.1 N 12 17 1011.1 - 0.2 - - - - - - -
29/10:30am 19.6 N 12 17 1011.1 - 0.2 - - - - - - -
29/10:00am 18.0 N 12 16 1011.3 - 0.2 - - - - - - -
29/09:30am 17.1 N 10 15 1011.4 - 0.2 - - - - - - -
29/09:00am 16.3 N 9 11 1011.5 - 12.4 - - - - - - -
29/08:30am 15.1 N 9 12 1011.4 - 12.4 - - - - - - -
29/08:00am 15.1 N 12 16 1011.0 - 12.4 - - - - - - -
29/07:30am 15.1 N 9 11 1011.3 - 12.4 - - - - - - -
29/07:00am 14.6 N 10 13 1011.2 - 12.4 - - - - - - -
29/06:30am 14.1 N 10 13 1011.3 - 12.4 - - - - - - -
29/06:00am 13.9 NNW 7 9 1011.3 - 12.2 Rain - - - - - -
29/05:30am 13.8 NNW 7 9 1011.2 - 11.2 - - - - - - -
29/05:00am 13.8 NNW 6 9 1011.1 - 9.2 - - - - - - -
29/04:30am 13.8 WNW 6 8 1010.7 - 6.6 - - - - - - -
29/04:00am 13.9 WNW 5 7 1010.6 - 4.2 - - - - - - -
29/03:30am 14.2 WNW 9 13 1011.3 - 3.2 - - - - - - -
29/03:00am 15.3 WNW 9 17 1011.3 - 2.4 Recent precip. - - - - - -
29/02:30am 16.1 NW 7 9 1011.3 - 2.2 - - - - - - -
29/02:00am 16.3 NW 8 12 1011.4 - 2.2 - - - - - - -
29/01:30am 16.8 WNW 10 14 1011.6 - 2.0 - - - - - - -
29/01:00am 17.4 WNW 11 16 1011.3 - 1.4 - - - - - - -
29/12:30am 17.6 WNW 9 14 1010.3 - 1.2 - - - - - - -
29/12:00am 17.8 WNW 10 13 1010.2 - 1.2 - - - - - - -
 
Date/Time
CST
Temp

°C
Wind Pressure Rain
since 9am
mm
Weather Cloud Vis
km
Sea
Height
m
Swell
Dir
 
Speed
knots
Gust
knots
hPa Trend Height
m
Period
s
Dir
28/11:30pm 18.1 NW 10 12 1009.8 - 1.2 - - - - - - -
28/11:00pm 17.7 NNW 7 11 1009.5 - 1.2 - - - - - - -
28/10:30pm 17.5 NNW 9 11 1010.0 - 1.2 - - - - - - -
28/10:00pm 17.0 NNW 5 7 1010.1 - 1.2 - - - - - - -
28/09:30pm 17.1 NNE 5 7 1010.2 - 1.2 - - - - - - -
28/09:00pm 17.2 ENE 5 7 1010.2 - 1.2 - - - - - - -
28/08:30pm 17.0 ENE 5 7 1010.3 - 1.2 - - - - - - -
28/08:00pm 17.0 ENE 6 8 1010.6 - 1.2 - - - - - - -
28/07:30pm 17.1 NE 7 9 1010.9 - 1.2 - - - - - - -
28/07:00pm 17.0 ENE 9 12 1010.9 - 1.2 - - - - - - -
28/06:30pm 17.3 ENE 9 12 1011.3 - 1.2 - - - - - - -
28/06:00pm 17.1 ENE 8 13 1011.3 - 1.2 - - - - - - -
28/05:30pm 17.3 E 7 10 1011.5 - 1.2 - - - - - - -
28/05:00pm 17.4 E 8 11 1011.5 - 1.2 - - - - - - -
28/04:30pm 18.0 E 9 13 1011.8 - 1.2 - - - - - - -
28/04:00pm 17.6 E 8 11 1012.2 - 1.2 - - - - - - -
28/03:30pm 18.6 E 9 13 1012.5 - 1.2 - - - - - - -
28/03:00pm 18.9 E 9 12 1012.7 - 1.0 - - - - - - -
28/02:30pm 17.6 E 9 13 1012.8 - 1.0 - - - - - - -
28/02:00pm 16.6 ESE 10 13 1013.3 - 1.0 - - - - - - -
28/01:30pm 17.3 E 7 9 1014.2 - 1.0 - - - - - - -
28/01:00pm 17.8 ESE 6 8 1014.3 - 1.0 - - - - - - -
28/12:30pm 18.0 ESE 4 7 1015.2 - 1.0 - - - - - - -
28/12:00pm 18.0 E 2 3 1016.0 - 1.0 - - - - - - -
28/11:30am 17.4 ENE 3 4 1016.5 - 1.0 - - - - - - -
28/11:00am 16.5 NNE 7 10 1016.9 - 1.0 - - - - - - -
28/10:30am 15.6 NNE 6 7 1016.7 - 0.8 - - - - - - -
28/10:00am 16.0 N 6 8 1017.8 - 0.2 - - - - - - -
28/09:30am 16.3 NNW 4 6 1018.1 - 0.0 - - - - - - -
28/09:00am 16.3 N 1 3 1017.7 - 0.4 - - - - - - -
28/08:30am 15.6 N 1 3 1017.4 - 0.4 - - - - - - -
28/08:00am 15.4 E 1 2 1017.3 - 0.4 - - - - - - -
28/07:30am 15.3 SSE 2 4 1016.6 - 0.4 - - - - - - -
28/07:00am 15.0 CALM 0 0 1016.7 - 0.4 - - - - - - -
28/06:30am 15.2 CALM 0 0 1016.3 - 0.4 - - - - - - -
28/06:00am 15.3 SW 2 3 1016.4 - 0.4 - - - - - - -
28/05:30am 15.4 SW 2 4 1016.2 - 0.4 - - - - - - -
28/05:00am 15.3 SW 2 3 1016.0 - 0.4 - - - - - - -
28/04:30am 15.6 WSW 3 3 1016.2 - 0.4 - - - - - - -
28/04:00am 15.8 SW 3 4 1015.9 - 0.2 - - - - - - -
28/03:30am 15.7 WSW 2 3 1015.8 - 0.2 - - - - - - -
28/03:00am 15.9 W 2 3 1016.0 - 0.0 - - - - - - -
28/02:30am 15.8 WNW 5 6 1016.2 - 0.0 - - - - - - -
28/02:00am 16.0 W 4 5 1015.8 - 0.0 - - - - - - -
28/01:30am 16.1 W 4 5 1016.0 - 0.0 - - - - - - -
28/01:00am 16.6 SW 6 8 1015.3 - 0.0 - - - - - - -
28/12:30am 16.3 WSW 4 6 1015.5 - 0.0 - - - - - - -
28/12:00am 16.6 SW 7 10 1015.3 - 0.0 - - - - - - -
 
Date/Time
CST
Temp

°C
Wind Pressure Rain
since 9am
mm
Weather Cloud Vis
km
Sea
Height
m
Swell
Dir
 
Speed
knots
Gust
knots
hPa Trend Height
m
Period
s
Dir
27/11:30pm 17.0 SW 6 10 1015.1 - 0.0 - - - - - - -
27/11:00pm 17.1 SW 8 10 1014.7 - 0.0 - - - - - - -
27/10:30pm 16.9 SW 10 13 1014.8 - 0.0 - - - - - - -
27/10:00pm 17.3 WSW 8 11 1014.7 - 0.0 - - - - - - -
27/09:30pm 17.1 WNW 3 4 1014.9 - 0.0 - - - - - - -
27/09:00pm 17.4 SW 5 7 1014.4 - 0.0 - - - - - - -
27/08:30pm 17.8 WSW 6 10 1014.2 - 0.0 - - - - - - -
27/08:00pm 17.6 WSW 7 9 1013.9 - 0.0 - - - - - - -
27/07:30pm 17.8 SW 4 5 1013.4 - 0.0 - - - - - - -
27/07:00pm 18.1 SW 5 8 1013.2 - 0.0 - - - - - - -
27/06:30pm 18.1 SW 6 8 1012.8 - 0.0 - - - - - - -
27/06:00pm 18.3 SW 7 8 1012.2 - 0.0 - - - - - - -
27/05:30pm 18.6 SW 9 11 1011.8 - 0.0 - - - - - - -
27/05:00pm 18.9 SW 10 12 1011.6 - 0.0 - - - - - - -
27/04:30pm 20.3 WSW 11 14 1011.5 - 0.0 - - - - - - -
27/04:00pm 21.4 WSW 13 16 1011.2 - 0.0 - - - - - - -
27/03:30pm 23.9 WSW 12 18 1010.9 - 0.0 - - - - - - -
27/03:00pm 24.9 WNW 10 15 1010.7 - 0.0 - - - - - - -
27/02:30pm 25.7 NNW 9 13 1010.6 - 0.0 - - - - - - -
27/02:00pm 23.8 NW 11 16 1010.5 - 0.0 - - - - - - -
27/01:30pm 23.2 NNW 10 14 1010.5 - 0.0 - - - - - - -
27/01:00pm 23.0 NNW 12 17 1010.6 - 0.0 - - - - - - -
27/12:30pm 23.8 N 14 22 1010.5 - 0.0 - - - - - - -
27/12:00pm 23.1 NNW 14 21 1010.7 - 0.0 - - - - - - -
27/11:30am 22.8 NNW 13 19 1011.0 - 0.0 - - - - - - -
27/11:00am 22.8 NNW 14 21 1011.1 - 0.0 - - - - - - -
27/10:30am 22.9 NNW 12 19 1011.6 - 0.0 - - - - - - -
27/10:00am 22.6 NNW 13 19 1011.7 - 0.0 - - - - - - -
27/09:30am 22.3 NNW 11 15 1011.9 - 0.0 - - - - - - -
27/09:00am 21.8 N 9 15 1012.4 - 0.0 - - - - - - -
27/08:30am 21.0 N 9 11 1012.2 - 0.0 - - - - - - -
27/08:00am 20.6 NNW 12 17 1012.2 - 0.0 - - - - - - -
27/07:30am 20.7 NNW 13 18 1011.8 - 0.0 - - - - - - -
27/07:00am 21.5 NNW 17 24 1011.6 - 0.0 - - - - - - -
27/06:30am 21.8 N 17 25 1011.0 - 0.0 - - - - - - -
27/06:23am 21.9 N 18 28 1010.9 - 0.0 - - - - - - -
27/06:00am 21.9 N 18 26 1010.8 - 0.0 - - - - - - -
27/05:30am 21.7 N 18 25 1011.0 - 0.0 - - - - - - -
27/05:00am 21.6 N 19 27 1010.8 - 0.0 - - - - - - -
27/04:30am 21.8 N 19 25 1010.7 - 0.0 - - - - - - -
27/04:10am 22.0 N 20 30 1010.7 - 0.0 - - - - - - -
27/04:00am 22.3 N 21 31 1010.6 - 0.0 - - - - - - -
27/03:55am 22.3 N 20 31 1010.6 - 0.0 - - - - - - -
27/03:30am 22.2 N 21 28 1010.6 - 0.0 - - - - - - -
27/03:00am 21.6 N 18 25 1010.8 - 0.0 - - - - - - -
27/02:30am 21.6 N 19 26 1011.3 - 0.0 - - - - - - -
27/02:00am 21.2 N 17 25 1011.6 - 0.0 - - - - - - -
27/01:30am 20.7 N 16 25 1011.6 - 0.0 - - - - - - -
27/01:00am 19.9 N 15 19 1012.1 - 0.0 - - - - - - -
27/12:30am 19.6 N 15 20 1012.4 - 0.0 - - - - - - -
27/12:00am 18.0 N 10 13 1012.9 - 0.0 - - - - - - -
 
Date/Time
CST
Temp

°C
Wind Pressure Rain
since 9am
mm
Weather Cloud Vis
km
Sea
Height
m
Swell
Dir
 
Speed
knots
Gust
knots
hPa Trend Height
m
Period
s
Dir
26/11:30pm 18.2 N 9 12 1013.1 - 0.0 - - - - - - -
26/11:00pm 18.2 N 10 12 1013.6 - 0.0 - - - - - - -
26/10:30pm 17.8 N 9 11 1013.8 - 0.0 - - - - - - -
26/10:00pm 18.0 N 9 11 1013.9 - 0.0 - - - - - - -
26/09:30pm 18.1 N 9 11 1013.9 - 0.0 - - - - - - -
26/09:00pm 18.6 N 9 11 1014.3 - 0.0 - - - - - - -
26/08:30pm 19.4 N 10 12 1014.7 - 0.0 - - - - - - -
26/08:00pm 19.8 N 9 11 1015.0 - 0.0 - - - - - - -
26/07:30pm 20.2 N 9 11 1015.3 - 0.0 - - - - - - -
26/07:00pm 20.9 N 10 13 1015.5 - 0.0 - - - - - - -
26/06:30pm 21.8 N 11 14 1015.5 - 0.0 - - - - - - -
26/06:00pm 22.7 N 11 15 1015.2 - 0.0 - - - - - - -
26/05:30pm 23.9 NNE 11 15 1015.2 - 0.0 - - - - - - -
26/05:00pm 24.9 NNE 14 18 1015.3 - 0.0 - - - - - - -
26/04:30pm 25.6 NNE 16 20 1015.4 - 0.0 - - - - - - -
26/04:00pm 26.8 NNE 16 21 1015.4 - 0.0 - - - - - - -
26/03:30pm 26.9 N 15 21 1015.8 - 0.0 - - - - - - -
26/03:00pm 27.1 N 17 22 1015.7 - 0.0 - - - - - - -
26/02:30pm 27.1 N 16 23 1016.1 - 0.0 - - - - - - -
26/02:00pm 27.2 N 16 24 1016.6 - 0.0 - - - - - - -
26/01:30pm 27.9 N 14 19 1017.1 - 0.0 - - - - - - -
26/01:00pm 27.1 N 15 22 1017.6 - 0.0 - - - - - - -
26/12:30pm 24.8 N 16 23 1018.3 - 0.0 - - - - - - -
26/12:00pm 25.2 N 18 24 1018.9 - 0.0 - - - - - - -

Other Formats:

Comma delimited format used in spreadsheet applications
http://www.bom.gov.au/fwo/IDS60701/IDS60701.95806.axf

JavaScript Object Notation format (JSON) in row-major order
http://www.bom.gov.au/fwo/IDS60701/IDS60701.95806.json